sensor_id;sensor_type;location;lat;lon;timestamp;P1;durP1;ratioP1;P2;durP2;ratioP2
14358;SDS011;7263;49.418;11.064;2024-03-08T00:01:47;15.37;;;12.77;;
14358;SDS011;7263;49.418;11.064;2024-03-08T00:04:17;15.37;;;13.13;;
14358;SDS011;7263;49.418;11.064;2024-03-08T00:06:47;16.50;;;12.37;;
14358;SDS011;7263;49.418;11.064;2024-03-08T00:09:21;16.00;;;12.70;;
14358;SDS011;7263;49.418;11.064;2024-03-08T00:11:48;17.10;;;13.50;;
14358;SDS011;7263;49.418;11.064;2024-03-08T00:14:18;18.17;;;12.93;;
14358;SDS011;7263;49.418;11.064;2024-03-08T00:16:48;16.80;;;13.27;;
14358;SDS011;7263;49.418;11.064;2024-03-08T00:19:18;16.60;;;13.47;;
14358;SDS011;7263;49.418;11.064;2024-03-08T00:21:50;16.00;;;13.27;;
14358;SDS011;7263;49.418;11.064;2024-03-08T00:24:26;17.57;;;14.40;;
14358;SDS011;7263;49.418;11.064;2024-03-08T00:26:54;16.87;;;13.33;;
14358;SDS011;7263;49.418;11.064;2024-03-08T00:29:25;16.87;;;13.60;;
14358;SDS011;7263;49.418;11.064;2024-03-08T00:31:52;16.50;;;13.43;;
14358;SDS011;7263;49.418;11.064;2024-03-08T00:34:22;19.43;;;13.97;;
14358;SDS011;7263;49.418;11.064;2024-03-08T00:36:50;17.40;;;13.27;;
14358;SDS011;7263;49.418;11.064;2024-03-08T00:39:28;17.23;;;13.83;;
14358;SDS011;7263;49.418;11.064;2024-03-08T00:41:59;19.70;;;14.60;;
14358;SDS011;7263;49.418;11.064;2024-03-08T00:44:33;16.97;;;14.30;;
14358;SDS011;7263;49.418;11.064;2024-03-08T00:47:00;18.67;;;14.40;;
14358;SDS011;7263;49.418;11.064;2024-03-08T00:49:28;17.00;;;14.07;;
14358;SDS011;7263;49.418;11.064;2024-03-08T00:51:55;19.17;;;14.13;;
14358;SDS011;7263;49.418;11.064;2024-03-08T00:54:22;17.53;;;14.40;;
14358;SDS011;7263;49.418;11.064;2024-03-08T00:56:51;17.40;;;13.60;;
14358;SDS011;7263;49.418;11.064;2024-03-08T00:59:22;18.40;;;14.90;;
14358;SDS011;7263;49.418;11.064;2024-03-08T01:01:50;20.63;;;14.73;;
14358;SDS011;7263;49.418;11.064;2024-03-08T01:04:17;16.30;;;13.60;;
14358;SDS011;7263;49.418;11.064;2024-03-08T01:06:45;19.53;;;15.53;;
14358;SDS011;7263;49.418;11.064;2024-03-08T01:09:15;20.93;;;15.57;;
14358;SDS011;7263;49.418;11.064;2024-03-08T01:11:46;18.57;;;14.60;;
14358;SDS011;7263;49.418;11.064;2024-03-08T01:14:14;17.60;;;14.17;;
14358;SDS011;7263;49.418;11.064;2024-03-08T01:17:01;19.43;;;13.73;;
14358;SDS011;7263;49.418;11.064;2024-03-08T01:19:30;18.93;;;14.87;;
14358;SDS011;7263;49.418;11.064;2024-03-08T01:21:58;18.77;;;14.23;;
14358;SDS011;7263;49.418;11.064;2024-03-08T01:24:24;18.40;;;14.93;;
14358;SDS011;7263;49.418;11.064;2024-03-08T01:26:57;17.67;;;15.20;;
14358;SDS011;7263;49.418;11.064;2024-03-08T01:29:23;17.23;;;13.97;;
14358;SDS011;7263;49.418;11.064;2024-03-08T01:31:50;17.43;;;14.40;;
14358;SDS011;7263;49.418;11.064;2024-03-08T01:34:19;17.83;;;14.80;;
14358;SDS011;7263;49.418;11.064;2024-03-08T01:36:49;20.37;;;14.80;;
14358;SDS011;7263;49.418;11.064;2024-03-08T01:39:18;18.90;;;14.77;;
14358;SDS011;7263;49.418;11.064;2024-03-08T01:41:48;17.73;;;14.23;;
14358;SDS011;7263;49.418;11.064;2024-03-08T01:44:15;16.40;;;14.07;;
14358;SDS011;7263;49.418;11.064;2024-03-08T01:46:48;17.80;;;15.13;;
14358;SDS011;7263;49.418;11.064;2024-03-08T01:49:17;18.53;;;15.50;;
14358;SDS011;7263;49.418;11.064;2024-03-08T01:51:48;17.50;;;14.03;;
14358;SDS011;7263;49.418;11.064;2024-03-08T01:54:16;17.63;;;15.23;;
14358;SDS011;7263;49.418;11.064;2024-03-08T01:56:45;17.37;;;14.33;;
14358;SDS011;7263;49.418;11.064;2024-03-08T01:59:12;18.53;;;15.50;;
14358;SDS011;7263;49.418;11.064;2024-03-08T02:01:45;18.40;;;14.37;;
14358;SDS011;7263;49.418;11.064;2024-03-08T02:04:12;21.07;;;15.33;;
14358;SDS011;7263;49.418;11.064;2024-03-08T02:06:45;19.27;;;15.03;;
14358;SDS011;7263;49.418;11.064;2024-03-08T02:09:14;17.53;;;15.33;;
14358;SDS011;7263;49.418;11.064;2024-03-08T02:11:42;18.20;;;15.47;;
14358;SDS011;7263;49.418;11.064;2024-03-08T02:14:19;20.47;;;15.10;;
14358;SDS011;7263;49.418;11.064;2024-03-08T02:17:02;19.60;;;15.00;;
14358;SDS011;7263;49.418;11.064;2024-03-08T02:19:30;21.03;;;14.37;;
14358;SDS011;7263;49.418;11.064;2024-03-08T02:21:59;19.00;;;14.70;;
14358;SDS011;7263;49.418;11.064;2024-03-08T02:24:29;18.07;;;15.80;;
14358;SDS011;7263;49.418;11.064;2024-03-08T02:26:56;18.33;;;14.67;;
14358;SDS011;7263;49.418;11.064;2024-03-08T02:29:28;20.40;;;15.87;;
14358;SDS011;7263;49.418;11.064;2024-03-08T02:31:56;18.60;;;16.27;;
14358;SDS011;7263;49.418;11.064;2024-03-08T02:34:25;19.70;;;14.60;;
14358;SDS011;7263;49.418;11.064;2024-03-08T02:36:52;18.17;;;13.73;;
14358;SDS011;7263;49.418;11.064;2024-03-08T02:39:26;17.73;;;13.77;;
14358;SDS011;7263;49.418;11.064;2024-03-08T02:41:52;17.77;;;15.23;;
14358;SDS011;7263;49.418;11.064;2024-03-08T02:44:25;19.13;;;15.70;;
14358;SDS011;7263;49.418;11.064;2024-03-08T02:46:55;19.90;;;14.90;;
14358;SDS011;7263;49.418;11.064;2024-03-08T02:49:22;17.43;;;14.40;;
14358;SDS011;7263;49.418;11.064;2024-03-08T02:51:51;19.00;;;15.27;;
14358;SDS011;7263;49.418;11.064;2024-03-08T02:54:21;18.50;;;14.03;;
14358;SDS011;7263;49.418;11.064;2024-03-08T02:57:00;19.07;;;15.23;;
14358;SDS011;7263;49.418;11.064;2024-03-08T02:59:29;21.77;;;15.07;;
14358;SDS011;7263;49.418;11.064;2024-03-08T03:02:05;18.00;;;15.23;;
14358;SDS011;7263;49.418;11.064;2024-03-08T03:04:32;18.47;;;15.50;;
14358;SDS011;7263;49.418;11.064;2024-03-08T03:06:59;18.10;;;14.77;;
14358;SDS011;7263;49.418;11.064;2024-03-08T03:09:27;18.67;;;14.73;;
14358;SDS011;7263;49.418;11.064;2024-03-08T03:11:55;16.63;;;14.00;;
14358;SDS011;7263;49.418;11.064;2024-03-08T03:14:23;19.10;;;15.33;;
14358;SDS011;7263;49.418;11.064;2024-03-08T03:16:51;20.13;;;15.87;;
14358;SDS011;7263;49.418;11.064;2024-03-08T03:19:22;19.20;;;14.47;;
14358;SDS011;7263;49.418;11.064;2024-03-08T03:21:49;17.10;;;14.93;;
14358;SDS011;7263;49.418;11.064;2024-03-08T03:24:22;17.93;;;14.37;;
14358;SDS011;7263;49.418;11.064;2024-03-08T03:27:02;21.67;;;15.63;;
14358;SDS011;7263;49.418;11.064;2024-03-08T03:29:38;18.67;;;14.33;;
14358;SDS011;7263;49.418;11.064;2024-03-08T03:32:10;18.37;;;14.57;;
14358;SDS011;7263;49.418;11.064;2024-03-08T03:34:40;20.40;;;15.90;;
14358;SDS011;7263;49.418;11.064;2024-03-08T03:37:12;17.83;;;15.30;;
14358;SDS011;7263;49.418;11.064;2024-03-08T03:39:42;18.67;;;14.03;;
14358;SDS011;7263;49.418;11.064;2024-03-08T03:42:21;19.77;;;15.07;;
14358;SDS011;7263;49.418;11.064;2024-03-08T03:44:51;17.63;;;14.50;;
14358;SDS011;7263;49.418;11.064;2024-03-08T03:47:21;18.47;;;15.03;;
14358;SDS011;7263;49.418;11.064;2024-03-08T03:49:50;19.63;;;15.13;;
14358;SDS011;7263;49.418;11.064;2024-03-08T03:52:26;19.70;;;14.13;;
14358;SDS011;7263;49.418;11.064;2024-03-08T03:54:54;19.70;;;15.23;;
14358;SDS011;7263;49.418;11.064;2024-03-08T03:57:27;19.33;;;15.13;;
14358;SDS011;7263;49.418;11.064;2024-03-08T04:00:05;21.10;;;16.50;;
14358;SDS011;7263;49.418;11.064;2024-03-08T04:02:35;18.17;;;14.07;;
14358;SDS011;7263;49.418;11.064;2024-03-08T04:05:06;18.50;;;14.27;;
14358;SDS011;7263;49.418;11.064;2024-03-08T04:07:34;19.60;;;15.00;;
14358;SDS011;7263;49.418;11.064;2024-03-08T04:10:07;19.13;;;14.83;;
14358;SDS011;7263;49.418;11.064;2024-03-08T04:12:39;21.73;;;16.80;;
14358;SDS011;7263;49.418;11.064;2024-03-08T04:15:06;18.80;;;14.80;;
14358;SDS011;7263;49.418;11.064;2024-03-08T04:17:35;19.60;;;13.97;;
14358;SDS011;7263;49.418;11.064;2024-03-08T04:20:03;19.33;;;14.23;;
14358;SDS011;7263;49.418;11.064;2024-03-08T04:22:38;20.50;;;15.50;;
14358;SDS011;7263;49.418;11.064;2024-03-08T04:25:14;21.33;;;16.03;;
14358;SDS011;7263;49.418;11.064;2024-03-08T04:27:42;19.87;;;14.67;;
14358;SDS011;7263;49.418;11.064;2024-03-08T04:30:09;21.10;;;16.13;;
14358;SDS011;7263;49.418;11.064;2024-03-08T04:32:42;19.93;;;15.17;;
14358;SDS011;7263;49.418;11.064;2024-03-08T04:35:09;18.03;;;15.50;;
14358;SDS011;7263;49.418;11.064;2024-03-08T04:37:39;21.87;;;15.57;;
14358;SDS011;7263;49.418;11.064;2024-03-08T04:40:07;19.23;;;15.80;;
14358;SDS011;7263;49.418;11.064;2024-03-08T04:42:41;20.20;;;15.23;;
14358;SDS011;7263;49.418;11.064;2024-03-08T04:45:16;20.67;;;15.30;;
14358;SDS011;7263;49.418;11.064;2024-03-08T04:47:43;17.97;;;14.33;;
14358;SDS011;7263;49.418;11.064;2024-03-08T04:50:10;19.10;;;16.70;;
14358;SDS011;7263;49.418;11.064;2024-03-08T04:52:37;20.57;;;17.60;;
14358;SDS011;7263;49.418;11.064;2024-03-08T04:55:05;18.73;;;16.73;;
14358;SDS011;7263;49.418;11.064;2024-03-08T04:57:32;19.37;;;17.30;;
14358;SDS011;7263;49.418;11.064;2024-03-08T05:00:00;20.67;;;16.67;;
14358;SDS011;7263;49.418;11.064;2024-03-08T05:02:36;22.03;;;16.57;;
14358;SDS011;7263;49.418;11.064;2024-03-08T05:05:04;22.17;;;16.73;;
14358;SDS011;7263;49.418;11.064;2024-03-08T05:07:35;26.47;;;20.97;;
14358;SDS011;7263;49.418;11.064;2024-03-08T05:10:04;23.27;;;16.60;;
14358;SDS011;7263;49.418;11.064;2024-03-08T05:12:32;20.70;;;16.77;;
14358;SDS011;7263;49.418;11.064;2024-03-08T05:15:03;19.67;;;15.97;;
14358;SDS011;7263;49.418;11.064;2024-03-08T05:17:32;19.70;;;15.77;;
14358;SDS011;7263;49.418;11.064;2024-03-08T05:19:59;19.97;;;15.67;;
14358;SDS011;7263;49.418;11.064;2024-03-08T05:22:26;23.27;;;15.90;;
14358;SDS011;7263;49.418;11.064;2024-03-08T05:24:53;22.60;;;17.77;;
14358;SDS011;7263;49.418;11.064;2024-03-08T05:27:23;19.63;;;16.47;;
14358;SDS011;7263;49.418;11.064;2024-03-08T05:29:50;19.13;;;15.67;;
14358;SDS011;7263;49.418;11.064;2024-03-08T05:32:20;20.57;;;16.07;;
14358;SDS011;7263;49.418;11.064;2024-03-08T05:34:52;19.80;;;15.40;;
14358;SDS011;7263;49.418;11.064;2024-03-08T05:37:25;23.00;;;17.63;;
14358;SDS011;7263;49.418;11.064;2024-03-08T05:39:52;18.97;;;15.20;;
14358;SDS011;7263;49.418;11.064;2024-03-08T05:42:22;21.30;;;16.20;;
14358;SDS011;7263;49.418;11.064;2024-03-08T05:44:53;19.73;;;16.77;;
14358;SDS011;7263;49.418;11.064;2024-03-08T05:47:23;21.30;;;15.37;;
14358;SDS011;7263;49.418;11.064;2024-03-08T05:49:50;20.97;;;16.67;;
14358;SDS011;7263;49.418;11.064;2024-03-08T05:52:20;19.90;;;16.40;;
14358;SDS011;7263;49.418;11.064;2024-03-08T05:54:47;19.53;;;15.73;;
14358;SDS011;7263;49.418;11.064;2024-03-08T05:57:17;19.77;;;16.87;;
14358;SDS011;7263;49.418;11.064;2024-03-08T05:59:47;20.10;;;17.40;;
14358;SDS011;7263;49.418;11.064;2024-03-08T06:02:14;20.63;;;16.33;;
14358;SDS011;7263;49.418;11.064;2024-03-08T06:04:45;20.40;;;15.90;;
14358;SDS011;7263;49.418;11.064;2024-03-08T06:07:15;21.70;;;17.43;;
14358;SDS011;7263;49.418;11.064;2024-03-08T06:09:42;22.63;;;17.63;;
14358;SDS011;7263;49.418;11.064;2024-03-08T06:12:14;21.30;;;16.53;;
14358;SDS011;7263;49.418;11.064;2024-03-08T06:17:39;20.93;;;18.10;;
14358;SDS011;7263;49.418;11.064;2024-03-08T06:20:08;21.70;;;17.67;;
14358;SDS011;7263;49.418;11.064;2024-03-08T06:22:38;21.43;;;17.00;;
14358;SDS011;7263;49.418;11.064;2024-03-08T06:25:18;24.03;;;17.80;;
14358;SDS011;7263;49.418;11.064;2024-03-08T06:27:46;20.77;;;16.37;;
14358;SDS011;7263;49.418;11.064;2024-03-08T06:30:20;21.67;;;17.80;;
14358;SDS011;7263;49.418;11.064;2024-03-08T06:32:47;22.03;;;18.13;;
14358;SDS011;7263;49.418;11.064;2024-03-08T06:35:19;20.77;;;17.10;;
14358;SDS011;7263;49.418;11.064;2024-03-08T06:37:45;21.33;;;17.37;;
14358;SDS011;7263;49.418;11.064;2024-03-08T06:40:17;22.93;;;17.40;;
14358;SDS011;7263;49.418;11.064;2024-03-08T06:42:44;20.20;;;16.70;;
14358;SDS011;7263;49.418;11.064;2024-03-08T06:45:12;20.73;;;17.20;;
14358;SDS011;7263;49.418;11.064;2024-03-08T06:47:47;22.00;;;16.13;;
14358;SDS011;7263;49.418;11.064;2024-03-08T06:50:14;21.47;;;16.70;;
14358;SDS011;7263;49.418;11.064;2024-03-08T06:52:43;20.97;;;16.53;;
14358;SDS011;7263;49.418;11.064;2024-03-08T06:55:17;23.67;;;17.70;;
14358;SDS011;7263;49.418;11.064;2024-03-08T06:57:44;20.87;;;17.13;;
14358;SDS011;7263;49.418;11.064;2024-03-08T07:00:11;22.93;;;17.00;;
14358;SDS011;7263;49.418;11.064;2024-03-08T07:02:43;21.10;;;16.57;;
14358;SDS011;7263;49.418;11.064;2024-03-08T07:05:14;22.87;;;16.83;;
14358;SDS011;7263;49.418;11.064;2024-03-08T07:07:58;21.27;;;17.17;;
14358;SDS011;7263;49.418;11.064;2024-03-08T07:10:33;23.20;;;17.53;;
14358;SDS011;7263;49.418;11.064;2024-03-08T07:13:06;21.97;;;16.87;;
14358;SDS011;7263;49.418;11.064;2024-03-08T07:15:43;20.73;;;15.00;;
14358;SDS011;7263;49.418;11.064;2024-03-08T07:18:11;18.63;;;15.17;;
14358;SDS011;7263;49.418;11.064;2024-03-08T07:20:44;18.40;;;14.93;;
14358;SDS011;7263;49.418;11.064;2024-03-08T07:23:16;19.57;;;15.03;;
14358;SDS011;7263;49.418;11.064;2024-03-08T07:26:00;18.90;;;14.93;;
14358;SDS011;7263;49.418;11.064;2024-03-08T07:28:35;19.90;;;14.10;;
14358;SDS011;7263;49.418;11.064;2024-03-08T07:31:07;19.20;;;14.43;;
14358;SDS011;7263;49.418;11.064;2024-03-08T07:33:42;17.27;;;14.20;;
14358;SDS011;7263;49.418;11.064;2024-03-08T07:36:12;17.87;;;14.53;;
14358;SDS011;7263;49.418;11.064;2024-03-08T07:38:46;16.17;;;13.60;;
14358;SDS011;7263;49.418;11.064;2024-03-08T07:41:22;21.27;;;14.53;;
14358;SDS011;7263;49.418;11.064;2024-03-08T07:43:52;16.97;;;12.73;;
14358;SDS011;7263;49.418;11.064;2024-03-08T07:46:22;17.47;;;13.53;;
14358;SDS011;7263;49.418;11.064;2024-03-08T07:48:54;16.07;;;13.17;;
14358;SDS011;7263;49.418;11.064;2024-03-08T07:51:21;16.83;;;13.43;;
14358;SDS011;7263;49.418;11.064;2024-03-08T07:53:51;15.80;;;12.47;;
14358;SDS011;7263;49.418;11.064;2024-03-08T07:56:21;16.00;;;13.13;;
14358;SDS011;7263;49.418;11.064;2024-03-08T07:58:50;17.23;;;12.87;;
14358;SDS011;7263;49.418;11.064;2024-03-08T08:01:23;17.23;;;13.03;;
14358;SDS011;7263;49.418;11.064;2024-03-08T08:03:54;17.47;;;13.00;;
14358;SDS011;7263;49.418;11.064;2024-03-08T08:06:21;15.60;;;12.47;;
14358;SDS011;7263;49.418;11.064;2024-03-08T08:09:01;15.27;;;11.60;;
14358;SDS011;7263;49.418;11.064;2024-03-08T08:11:49;15.63;;;11.97;;
14358;SDS011;7263;49.418;11.064;2024-03-08T08:14:16;13.50;;;11.73;;
14358;SDS011;7263;49.418;11.064;2024-03-08T08:16:51;15.97;;;11.93;;
14358;SDS011;7263;49.418;11.064;2024-03-08T08:19:18;15.03;;;11.00;;
14358;SDS011;7263;49.418;11.064;2024-03-08T08:21:51;16.70;;;11.50;;
14358;SDS011;7263;49.418;11.064;2024-03-08T08:24:25;14.73;;;11.00;;
14358;SDS011;7263;49.418;11.064;2024-03-08T08:26:59;14.03;;;10.47;;
14358;SDS011;7263;49.418;11.064;2024-03-08T08:29:33;13.17;;;9.60;;
14358;SDS011;7263;49.418;11.064;2024-03-08T08:32:01;14.60;;;10.70;;
14358;SDS011;7263;49.418;11.064;2024-03-08T08:34:31;13.63;;;9.90;;
14358;SDS011;7263;49.418;11.064;2024-03-08T08:36:59;12.43;;;9.47;;
14358;SDS011;7263;49.418;11.064;2024-03-08T08:39:31;12.87;;;8.97;;
14358;SDS011;7263;49.418;11.064;2024-03-08T08:42:04;14.07;;;9.33;;
14358;SDS011;7263;49.418;11.064;2024-03-08T08:44:37;13.13;;;9.80;;
14358;SDS011;7263;49.418;11.064;2024-03-08T08:47:04;13.13;;;9.67;;
14358;SDS011;7263;49.418;11.064;2024-03-08T08:49:34;11.63;;;9.13;;
14358;SDS011;7263;49.418;11.064;2024-03-08T08:52:06;12.40;;;9.03;;
14358;SDS011;7263;49.418;11.064;2024-03-08T08:54:35;12.13;;;8.83;;
14358;SDS011;7263;49.418;11.064;2024-03-08T08:57:16;12.63;;;9.60;;
14358;SDS011;7263;49.418;11.064;2024-03-08T08:59:45;11.30;;;8.67;;
14358;SDS011;7263;49.418;11.064;2024-03-08T09:02:15;12.87;;;8.80;;
14358;SDS011;7263;49.418;11.064;2024-03-08T09:04:46;11.67;;;8.33;;
14358;SDS011;7263;49.418;11.064;2024-03-08T09:07:21;11.83;;;9.13;;
14358;SDS011;7263;49.418;11.064;2024-03-08T09:10:02;14.40;;;10.37;;
14358;SDS011;7263;49.418;11.064;2024-03-08T09:12:44;11.23;;;8.03;;
14358;SDS011;7263;49.418;11.064;2024-03-08T09:15:13;10.83;;;8.17;;
14358;SDS011;7263;49.418;11.064;2024-03-08T09:17:45;13.70;;;8.83;;
14358;SDS011;7263;49.418;11.064;2024-03-08T09:20:18;17.03;;;12.57;;
14358;SDS011;7263;49.418;11.064;2024-03-08T09:22:54;12.80;;;8.17;;
14358;SDS011;7263;49.418;11.064;2024-03-08T09:25:30;10.50;;;7.80;;
14358;SDS011;7263;49.418;11.064;2024-03-08T09:27:57;13.33;;;7.23;;
14358;SDS011;7263;49.418;11.064;2024-03-08T09:30:27;14.10;;;9.53;;
14358;SDS011;7263;49.418;11.064;2024-03-08T09:32:54;11.87;;;8.40;;
14358;SDS011;7263;49.418;11.064;2024-03-08T09:35:24;13.00;;;9.10;;
14358;SDS011;7263;49.418;11.064;2024-03-08T09:37:54;11.73;;;9.40;;
14358;SDS011;7263;49.418;11.064;2024-03-08T09:40:21;10.97;;;8.50;;
14358;SDS011;7263;49.418;11.064;2024-03-08T09:42:54;11.93;;;9.00;;
14358;SDS011;7263;49.418;11.064;2024-03-08T09:45:29;13.57;;;8.20;;
14358;SDS011;7263;49.418;11.064;2024-03-08T09:48:08;12.90;;;8.83;;
14358;SDS011;7263;49.418;11.064;2024-03-08T09:50:39;11.27;;;8.33;;
14358;SDS011;7263;49.418;11.064;2024-03-08T09:53:06;11.77;;;8.77;;
14358;SDS011;7263;49.418;11.064;2024-03-08T09:55:37;11.93;;;8.60;;
14358;SDS011;7263;49.418;11.064;2024-03-08T09:58:12;10.97;;;7.97;;
14358;SDS011;7263;49.418;11.064;2024-03-08T10:00:55;11.63;;;8.73;;
14358;SDS011;7263;49.418;11.064;2024-03-08T10:03:27;11.40;;;8.30;;
14358;SDS011;7263;49.418;11.064;2024-03-08T10:05:58;12.10;;;8.57;;
14358;SDS011;7263;49.418;11.064;2024-03-08T10:08:26;12.63;;;8.53;;
14358;SDS011;7263;49.418;11.064;2024-03-08T10:10:59;9.23;;;7.73;;
14358;SDS011;7263;49.418;11.064;2024-03-08T10:13:27;12.57;;;8.17;;
14358;SDS011;7263;49.418;11.064;2024-03-08T10:15:57;10.30;;;7.87;;
14358;SDS011;7263;49.418;11.064;2024-03-08T10:18:27;9.70;;;7.50;;
14358;SDS011;7263;49.418;11.064;2024-03-08T10:21:03;11.30;;;8.17;;
14358;SDS011;7263;49.418;11.064;2024-03-08T10:23:38;9.83;;;7.40;;
14358;SDS011;7263;49.418;11.064;2024-03-08T10:26:16;10.00;;;7.03;;
14358;SDS011;7263;49.418;11.064;2024-03-08T10:28:51;11.27;;;7.87;;
14358;SDS011;7263;49.418;11.064;2024-03-08T10:31:19;9.90;;;7.60;;
14358;SDS011;7263;49.418;11.064;2024-03-08T10:33:52;9.47;;;7.70;;
14358;SDS011;7263;49.418;11.064;2024-03-08T10:36:19;10.83;;;7.37;;
14358;SDS011;7263;49.418;11.064;2024-03-08T10:38:46;9.93;;;7.47;;
14358;SDS011;7263;49.418;11.064;2024-03-08T10:41:39;9.30;;;7.33;;
14358;SDS011;7263;49.418;11.064;2024-03-08T10:44:13;9.70;;;6.90;;
14358;SDS011;7263;49.418;11.064;2024-03-08T10:46:57;9.43;;;7.03;;
14358;SDS011;7263;49.418;11.064;2024-03-08T10:49:37;8.27;;;6.47;;
14358;SDS011;7263;49.418;11.064;2024-03-08T10:52:07;10.33;;;6.87;;
14358;SDS011;7263;49.418;11.064;2024-03-08T10:54:50;7.80;;;6.00;;
14358;SDS011;7263;49.418;11.064;2024-03-08T10:57:21;8.90;;;6.73;;
14358;SDS011;7263;49.418;11.064;2024-03-08T10:59:54;8.50;;;6.07;;
14358;SDS011;7263;49.418;11.064;2024-03-08T11:02:36;7.53;;;5.70;;
14358;SDS011;7263;49.418;11.064;2024-03-08T11:05:08;9.10;;;6.30;;
14358;SDS011;7263;49.418;11.064;2024-03-08T11:07:40;7.77;;;6.07;;
14358;SDS011;7263;49.418;11.064;2024-03-08T11:10:18;9.70;;;6.30;;
14358;SDS011;7263;49.418;11.064;2024-03-08T11:12:49;7.80;;;5.80;;
14358;SDS011;7263;49.418;11.064;2024-03-08T11:15:20;7.57;;;5.57;;
14358;SDS011;7263;49.418;11.064;2024-03-08T11:17:49;5.97;;;5.03;;
14358;SDS011;7263;49.418;11.064;2024-03-08T11:20:17;8.60;;;6.03;;
14358;SDS011;7263;49.418;11.064;2024-03-08T11:22:49;8.07;;;5.83;;
14358;SDS011;7263;49.418;11.064;2024-03-08T11:25:36;9.57;;;5.77;;
14358;SDS011;7263;49.418;11.064;2024-03-08T11:28:12;5.77;;;4.27;;
14358;SDS011;7263;49.418;11.064;2024-03-08T11:30:45;5.57;;;4.53;;
14358;SDS011;7263;49.418;11.064;2024-03-08T11:33:19;5.73;;;4.37;;
14358;SDS011;7263;49.418;11.064;2024-03-08T11:36:10;5.73;;;4.40;;
14358;SDS011;7263;49.418;11.064;2024-03-08T11:38:41;5.50;;;4.50;;
14358;SDS011;7263;49.418;11.064;2024-03-08T11:41:12;5.33;;;4.47;;
14358;SDS011;7263;49.418;11.064;2024-03-08T11:43:39;4.90;;;4.27;;
14358;SDS011;7263;49.418;11.064;2024-03-08T11:46:17;5.33;;;3.93;;
14358;SDS011;7263;49.418;11.064;2024-03-08T11:48:47;7.57;;;3.47;;
14358;SDS011;7263;49.418;11.064;2024-03-08T11:51:14;5.30;;;3.50;;
14358;SDS011;7263;49.418;11.064;2024-03-08T11:53:43;3.40;;;2.93;;
14358;SDS011;7263;49.418;11.064;2024-03-08T11:56:13;4.93;;;3.50;;
14358;SDS011;7263;49.418;11.064;2024-03-08T11:58:41;6.10;;;4.07;;
14358;SDS011;7263;49.418;11.064;2024-03-08T12:01:08;7.00;;;5.27;;
14358;SDS011;7263;49.418;11.064;2024-03-08T12:03:38;8.33;;;5.67;;
14358;SDS011;7263;49.418;11.064;2024-03-08T12:06:07;7.97;;;5.17;;
14358;SDS011;7263;49.418;11.064;2024-03-08T12:08:34;7.73;;;5.13;;
14358;SDS011;7263;49.418;11.064;2024-03-08T12:11:06;6.33;;;5.37;;
14358;SDS011;7263;49.418;11.064;2024-03-08T12:13:35;7.63;;;5.43;;
14358;SDS011;7263;49.418;11.064;2024-03-08T12:16:11;8.87;;;6.13;;
14358;SDS011;7263;49.418;11.064;2024-03-08T12:18:50;7.83;;;5.60;;
14358;SDS011;7263;49.418;11.064;2024-03-08T12:21:18;7.47;;;5.50;;
14358;SDS011;7263;49.418;11.064;2024-03-08T12:24:01;6.10;;;4.77;;
14358;SDS011;7263;49.418;11.064;2024-03-08T12:26:30;9.00;;;5.43;;
14358;SDS011;7263;49.418;11.064;2024-03-08T12:29:14;25.37;;;14.47;;
14358;SDS011;7263;49.418;11.064;2024-03-08T12:31:47;23.67;;;14.73;;
14358;SDS011;7263;49.418;11.064;2024-03-08T12:34:17;35.70;;;19.97;;
14358;SDS011;7263;49.418;11.064;2024-03-08T12:36:44;22.13;;;14.93;;
14358;SDS011;7263;49.418;11.064;2024-03-08T12:39:13;9.23;;;6.67;;
14358;SDS011;7263;49.418;11.064;2024-03-08T12:41:52;14.53;;;10.30;;
14358;SDS011;7263;49.418;11.064;2024-03-08T12:44:19;6.90;;;5.33;;
14358;SDS011;7263;49.418;11.064;2024-03-08T12:46:47;5.97;;;4.77;;
14358;SDS011;7263;49.418;11.064;2024-03-08T12:49:17;6.90;;;5.53;;
14358;SDS011;7263;49.418;11.064;2024-03-08T12:51:50;8.60;;;5.67;;
14358;SDS011;7263;49.418;11.064;2024-03-08T12:54:17;6.50;;;5.60;;
14358;SDS011;7263;49.418;11.064;2024-03-08T12:56:48;8.03;;;6.17;;
14358;SDS011;7263;49.418;11.064;2024-03-08T12:59:19;6.87;;;4.87;;
14358;SDS011;7263;49.418;11.064;2024-03-08T13:01:49;7.13;;;5.00;;
14358;SDS011;7263;49.418;11.064;2024-03-08T13:04:22;12.17;;;5.53;;
14358;SDS011;7263;49.418;11.064;2024-03-08T13:06:50;6.67;;;4.67;;
14358;SDS011;7263;49.418;11.064;2024-03-08T13:09:20;7.93;;;6.17;;
14358;SDS011;7263;49.418;11.064;2024-03-08T13:11:52;9.20;;;6.47;;
14358;SDS011;7263;49.418;11.064;2024-03-08T13:14:23;7.13;;;4.77;;
14358;SDS011;7263;49.418;11.064;2024-03-08T13:16:50;10.90;;;5.47;;
14358;SDS011;7263;49.418;11.064;2024-03-08T13:19:28;6.90;;;5.43;;
14358;SDS011;7263;49.418;11.064;2024-03-08T13:22:01;7.03;;;5.33;;
14358;SDS011;7263;49.418;11.064;2024-03-08T13:24:37;7.80;;;5.33;;
14358;SDS011;7263;49.418;11.064;2024-03-08T13:27:05;6.60;;;5.27;;
14358;SDS011;7263;49.418;11.064;2024-03-08T13:29:44;5.73;;;4.40;;
14358;SDS011;7263;49.418;11.064;2024-03-08T13:32:12;5.23;;;4.40;;
14358;SDS011;7263;49.418;11.064;2024-03-08T13:34:41;6.93;;;4.73;;
14358;SDS011;7263;49.418;11.064;2024-03-08T13:37:09;7.10;;;4.10;;
14358;SDS011;7263;49.418;11.064;2024-03-08T13:39:41;5.40;;;4.53;;
14358;SDS011;7263;49.418;11.064;2024-03-08T13:42:11;7.27;;;5.13;;
14358;SDS011;7263;49.418;11.064;2024-03-08T13:44:47;8.27;;;4.93;;
14358;SDS011;7263;49.418;11.064;2024-03-08T13:47:15;5.47;;;4.57;;
14358;SDS011;7263;49.418;11.064;2024-03-08T13:49:51;5.40;;;4.63;;
14358;SDS011;7263;49.418;11.064;2024-03-08T13:52:21;7.00;;;5.03;;
14358;SDS011;7263;49.418;11.064;2024-03-08T13:55:08;5.77;;;4.63;;
14358;SDS011;7263;49.418;11.064;2024-03-08T13:57:38;7.43;;;5.00;;
14358;SDS011;7263;49.418;11.064;2024-03-08T14:00:07;5.43;;;4.63;;
14358;SDS011;7263;49.418;11.064;2024-03-08T14:02:42;5.47;;;4.57;;
14358;SDS011;7263;49.418;11.064;2024-03-08T14:05:10;6.30;;;4.30;;
14358;SDS011;7263;49.418;11.064;2024-03-08T14:07:41;5.57;;;4.60;;
14358;SDS011;7263;49.418;11.064;2024-03-08T14:10:11;7.47;;;4.77;;
14358;SDS011;7263;49.418;11.064;2024-03-08T14:12:38;6.33;;;5.07;;
14358;SDS011;7263;49.418;11.064;2024-03-08T14:15:22;5.77;;;4.47;;
14358;SDS011;7263;49.418;11.064;2024-03-08T14:17:55;7.83;;;4.93;;
14358;SDS011;7263;49.418;11.064;2024-03-08T14:20:33;8.23;;;5.87;;
14358;SDS011;7263;49.418;11.064;2024-03-08T14:23:02;10.30;;;5.77;;
14358;SDS011;7263;49.418;11.064;2024-03-08T14:25:37;7.97;;;6.23;;
14358;SDS011;7263;49.418;11.064;2024-03-08T14:28:04;8.17;;;5.97;;
14358;SDS011;7263;49.418;11.064;2024-03-08T14:30:32;7.90;;;5.63;;
14358;SDS011;7263;49.418;11.064;2024-03-08T14:33:02;12.10;;;8.87;;
14358;SDS011;7263;49.418;11.064;2024-03-08T14:35:35;7.10;;;4.97;;
14358;SDS011;7263;49.418;11.064;2024-03-08T14:38:02;6.47;;;5.27;;
14358;SDS011;7263;49.418;11.064;2024-03-08T14:40:39;6.80;;;5.43;;
14358;SDS011;7263;49.418;11.064;2024-03-08T14:43:11;7.37;;;5.30;;
14358;SDS011;7263;49.418;11.064;2024-03-08T14:45:42;7.37;;;5.10;;
14358;SDS011;7263;49.418;11.064;2024-03-08T14:48:12;7.13;;;5.77;;
14358;SDS011;7263;49.418;11.064;2024-03-08T14:50:43;7.70;;;5.93;;
14358;SDS011;7263;49.418;11.064;2024-03-08T14:53:10;6.87;;;5.27;;
14358;SDS011;7263;49.418;11.064;2024-03-08T14:55:40;8.23;;;5.63;;
14358;SDS011;7263;49.418;11.064;2024-03-08T14:58:12;6.70;;;4.70;;